createdAt,value
2022-09-15T00:00:38.867Z,16.02
2022-09-15T00:06:25.602Z,15.96
2022-09-15T00:12:12.224Z,15.93
2022-09-15T00:17:58.849Z,16.00
2022-09-15T00:23:46.140Z,16.02
2022-09-15T00:29:32.957Z,16.02
2022-09-15T00:35:19.709Z,15.89
2022-09-15T00:41:08.470Z,15.92
2022-09-15T00:47:17.752Z,15.79
2022-09-15T00:53:08.846Z,15.50
2022-09-15T00:59:01.361Z,15.25
2022-09-15T01:04:49.572Z,14.96
2022-09-15T01:10:40.083Z,14.94
2022-09-15T01:16:26.691Z,14.66
2022-09-15T01:22:25.626Z,14.61
2022-09-15T01:28:12.294Z,14.56
2022-09-15T01:34:06.464Z,14.62
2022-09-15T01:39:56.610Z,14.53
2022-09-15T01:45:45.380Z,14.50
2022-09-15T01:51:34.782Z,14.17
2022-09-15T01:57:21.837Z,14.20
2022-09-15T02:03:18.897Z,14.21
2022-09-15T02:09:17.389Z,14.60
2022-09-15T02:15:08.680Z,14.97
2022-09-15T02:21:08.074Z,15.08
2022-09-15T02:26:57.626Z,15.11
2022-09-15T02:32:51.382Z,15.17
2022-09-15T02:38:43.970Z,15.17
2022-09-15T02:44:31.063Z,15.11
2022-09-15T02:50:18.957Z,15.12
2022-09-15T02:56:06.592Z,14.99
2022-09-15T03:01:53.455Z,15.11
2022-09-15T03:07:40.998Z,15.08
2022-09-15T03:13:27.612Z,15.22
2022-09-15T03:19:17.321Z,15.22
2022-09-15T03:25:07.777Z,15.03
2022-09-15T03:30:55.031Z,14.96
2022-09-15T03:36:41.690Z,14.78
2022-09-15T03:42:28.241Z,14.71
2022-09-15T03:48:14.945Z,14.63
2022-09-15T03:54:01.695Z,14.66
2022-09-15T03:59:48.365Z,14.57
2022-09-15T04:05:36.503Z,14.59
2022-09-15T04:11:23.225Z,14.59
2022-09-15T04:17:10.779Z,14.63
2022-09-15T04:22:57.410Z,14.60
2022-09-15T04:28:43.957Z,14.60
2022-09-15T04:34:30.597Z,14.55
2022-09-15T04:40:17.458Z,14.63
2022-09-15T04:46:04.577Z,14.62
2022-09-15T04:51:55.231Z,14.73
2022-09-15T04:57:41.842Z,14.72
2022-09-15T05:03:28.572Z,14.80
2022-09-15T05:09:15.334Z,14.73
2022-09-15T05:15:01.990Z,14.76
2022-09-15T05:20:48.770Z,14.75
2022-09-15T05:26:35.444Z,14.69
2022-09-15T05:32:22.146Z,14.53
2022-09-15T05:38:08.925Z,14.63
2022-09-15T05:43:57.316Z,14.51
2022-09-15T05:49:44.098Z,14.61
2022-09-15T05:55:31.003Z,14.75
2022-09-15T06:01:23.697Z,14.69
2022-09-15T06:07:10.576Z,14.67
2022-09-15T06:12:57.313Z,14.75
2022-09-15T06:18:44.197Z,14.69
2022-09-15T06:24:36.682Z,14.74
2022-09-15T06:37:19.423Z,14.86
2022-09-15T06:43:06.450Z,15.01
2022-09-15T06:48:57.985Z,15.15
2022-09-15T06:54:56.069Z,14.99
2022-09-15T07:00:49.408Z,15.16
2022-09-15T07:06:38.795Z,15.40
2022-09-15T07:12:25.660Z,15.45
2022-09-15T07:18:12.535Z,15.39
2022-09-15T07:24:03.714Z,15.72
2022-09-15T07:29:54.984Z,15.75
2022-09-15T07:59:43.407Z,16.29
2022-09-15T08:05:38.682Z,16.39
2022-09-15T08:11:29.311Z,16.38
2022-09-15T08:17:18.718Z,16.45
2022-09-15T08:23:05.418Z,16.73
2022-09-15T08:28:52.694Z,16.70
2022-09-15T08:34:39.702Z,16.41
2022-09-15T08:40:34.756Z,16.59
2022-09-15T08:46:27.811Z,16.74
2022-09-15T08:52:25.918Z,16.64
2022-09-15T08:58:25.348Z,17.10
2022-09-15T09:04:26.572Z,17.08
2022-09-15T09:10:25.098Z,17.20
2022-09-15T09:16:31.370Z,17.27
2022-09-15T09:22:24.243Z,17.59
2022-09-15T09:28:24.148Z,17.46
2022-09-15T09:34:35.460Z,17.34
2022-09-15T09:40:22.937Z,16.95
2022-09-15T09:46:15.811Z,17.68
2022-09-15T09:52:04.637Z,18.32
2022-09-15T09:57:51.562Z,17.72
2022-09-15T10:03:38.905Z,17.88
2022-09-15T10:09:28.757Z,17.77
2022-09-15T10:15:24.856Z,18.14
2022-09-15T10:21:14.897Z,18.15
2022-09-15T10:27:17.022Z,18.57
2022-09-15T10:33:24.307Z,18.98
2022-09-15T10:39:36.182Z,19.13
2022-09-15T10:45:34.027Z,19.10
2022-09-15T10:52:06.162Z,19.66
2022-09-15T10:58:20.442Z,20.06
2022-09-15T11:04:11.169Z,20.02
2022-09-15T11:10:20.437Z,20.16
2022-09-15T11:16:41.164Z,19.50
2022-09-15T11:22:59.476Z,19.45
2022-09-15T11:28:59.517Z,19.82
2022-09-15T11:42:36.632Z,19.72
2022-09-15T14:17:02.024Z,19.64
2022-09-15T14:31:35.501Z,19.89
2022-09-15T15:17:31.110Z,19.67
2022-09-15T15:24:05.196Z,19.34
2022-09-15T15:31:03.216Z,19.17
2022-09-15T15:51:42.855Z,19.52
2022-09-15T15:57:36.465Z,19.90
2022-09-15T16:03:24.615Z,19.62
2022-09-15T16:09:14.832Z,19.36
2022-09-15T16:15:59.951Z,19.40
2022-09-15T16:21:49.387Z,19.35
2022-09-15T16:27:58.938Z,18.89
2022-09-15T16:33:51.354Z,18.69
2022-09-15T16:39:38.233Z,18.65
2022-09-15T16:45:47.088Z,18.31
2022-09-15T16:51:33.885Z,18.25
2022-09-15T16:57:20.905Z,18.34
2022-09-15T17:18:17.860Z,18.01
2022-09-15T17:24:04.762Z,18.06
2022-09-15T17:38:21.065Z,18.08
2022-09-15T17:44:15.218Z,17.82
2022-09-15T17:50:03.324Z,17.55
2022-09-15T17:56:04.902Z,17.59
2022-09-15T18:02:23.972Z,17.64
2022-09-15T18:08:21.946Z,17.72
2022-09-15T18:14:35.697Z,17.89
2022-09-15T18:20:25.948Z,17.73
2022-09-15T18:26:13.977Z,17.95
2022-09-15T18:32:04.327Z,17.60
2022-09-15T18:37:56.690Z,17.41
2022-09-15T18:43:43.954Z,17.46
2022-09-15T18:49:30.837Z,17.46
2022-09-15T18:55:21.086Z,17.21
2022-09-15T19:01:08.023Z,17.45
2022-09-15T19:06:54.899Z,17.68
2022-09-15T19:12:41.972Z,17.49
2022-09-15T19:18:29.808Z,17.94
2022-09-15T19:24:17.357Z,18.02
2022-09-15T19:30:13.237Z,18.10
2022-09-15T19:36:24.199Z,17.93
2022-09-15T19:48:05.816Z,17.80
2022-09-15T19:53:57.539Z,17.54
2022-09-15T20:06:06.917Z,17.57
2022-09-15T20:11:54.166Z,17.44
2022-09-15T20:17:52.879Z,17.75
2022-09-15T20:23:47.563Z,17.36
2022-09-15T20:29:37.063Z,17.17
2022-09-15T20:35:35.534Z,17.03
2022-09-15T20:41:46.663Z,16.75
2022-09-15T20:47:40.831Z,16.86
2022-09-15T20:53:39.138Z,16.92
2022-09-15T20:59:26.121Z,16.68
2022-09-15T21:05:23.152Z,16.65
2022-09-15T21:11:20.942Z,16.66
2022-09-15T21:17:17.972Z,16.71
2022-09-15T21:23:09.976Z,16.68
2022-09-15T21:28:57.695Z,16.39
2022-09-15T21:34:49.914Z,16.18
2022-09-15T21:40:36.903Z,16.32
2022-09-15T21:46:26.629Z,16.23
2022-09-15T21:52:13.520Z,16.17
2022-09-15T21:58:00.313Z,16.07
2022-09-15T22:03:54.367Z,16.18
2022-09-15T22:09:41.108Z,16.14
2022-09-15T22:15:48.893Z,15.93
2022-09-15T22:21:41.786Z,15.89
2022-09-15T22:27:30.817Z,15.82
2022-09-15T22:33:17.726Z,15.87
2022-09-15T22:39:05.717Z,15.71
2022-09-15T22:44:52.869Z,15.74
2022-09-15T22:50:39.601Z,15.69
2022-09-15T22:56:26.849Z,15.21
2022-09-15T23:02:13.889Z,15.12
2022-09-15T23:08:00.757Z,15.14
2022-09-15T23:13:47.855Z,15.16
2022-09-15T23:19:34.735Z,15.03
2022-09-15T23:25:21.429Z,15.00
2022-09-15T23:31:11.888Z,14.93
2022-09-15T23:36:58.745Z,14.63
2022-09-15T23:42:45.393Z,14.64
2022-09-15T23:48:32.544Z,15.09
2022-09-15T23:54:19.448Z,14.98
